sensor_id;sensor_type;location;lat;lon;timestamp;pressure;altitude;pressure_sealevel;temperature;humidity
50368;BME280;36281;34.132;-118.018;2023-04-01T00:01:27;100613.69;;;19.44;42.75
50368;BME280;36281;34.132;-118.018;2023-04-01T00:03:56;100627.19;;;19.49;42.64
50368;BME280;36281;34.132;-118.018;2023-04-01T00:06:25;100617.44;;;19.43;42.55
50368;BME280;36281;34.132;-118.018;2023-04-01T00:08:54;100626.00;;;19.40;42.88
50368;BME280;36281;34.132;-118.018;2023-04-01T00:11:23;100618.13;;;19.33;42.86
50368;BME280;36281;34.132;-118.018;2023-04-01T00:13:53;100612.91;;;19.22;43.20
50368;BME280;36281;34.132;-118.018;2023-04-01T00:16:24;100600.28;;;19.22;43.36
50368;BME280;36281;34.132;-118.018;2023-04-01T00:18:53;100611.50;;;19.19;44.05
50368;BME280;36281;34.132;-118.018;2023-04-01T00:21:23;100606.91;;;19.15;44.27
50368;BME280;36281;34.132;-118.018;2023-04-01T00:23:52;100603.03;;;19.05;44.31
50368;BME280;36281;34.132;-118.018;2023-04-01T00:26:21;100608.84;;;18.97;44.85
50368;BME280;36281;34.132;-118.018;2023-04-01T00:28:50;100609.59;;;18.93;45.14
50368;BME280;36281;34.132;-118.018;2023-04-01T00:31:20;100608.22;;;18.90;45.27
50368;BME280;36281;34.132;-118.018;2023-04-01T00:33:51;100605.47;;;18.85;45.22
50368;BME280;36281;34.132;-118.018;2023-04-01T00:36:21;100613.47;;;18.80;45.41
50368;BME280;36281;34.132;-118.018;2023-04-01T00:38:51;100614.41;;;18.74;46.21
50368;BME280;36281;34.132;-118.018;2023-04-01T00:41:21;100616.22;;;18.68;46.48
50368;BME280;36281;34.132;-118.018;2023-04-01T00:43:51;100613.44;;;18.63;46.91
50368;BME280;36281;34.132;-118.018;2023-04-01T00:46:20;100618.47;;;18.59;47.62
50368;BME280;36281;34.132;-118.018;2023-04-01T00:48:53;100603.28;;;18.48;47.05
50368;BME280;36281;34.132;-118.018;2023-04-01T00:51:25;100619.97;;;18.50;47.37
50368;BME280;36281;34.132;-118.018;2023-04-01T00:53:57;100615.56;;;18.44;47.42
50368;BME280;36281;34.132;-118.018;2023-04-01T00:56:31;100615.00;;;18.42;47.55
50368;BME280;36281;34.132;-118.018;2023-04-01T00:59:04;100614.47;;;18.40;47.99
50368;BME280;36281;34.132;-118.018;2023-04-01T01:01:36;100623.47;;;18.34;47.72
50368;BME280;36281;34.132;-118.018;2023-04-01T01:04:18;100621.44;;;18.24;47.67
50368;BME280;36281;34.132;-118.018;2023-04-01T01:06:54;100623.84;;;18.09;47.83
50368;BME280;36281;34.132;-118.018;2023-04-01T01:09:41;100619.13;;;17.99;48.50
50368;BME280;36281;34.132;-118.018;2023-04-01T01:12:15;100613.94;;;17.93;48.75
50368;BME280;36281;34.132;-118.018;2023-04-01T01:14:54;100608.84;;;17.91;48.78
50368;BME280;36281;34.132;-118.018;2023-04-01T01:17:32;100604.66;;;17.83;49.35
50368;BME280;36281;34.132;-118.018;2023-04-01T01:23:36;100609.97;;;17.67;49.69
50368;BME280;36281;34.132;-118.018;2023-04-01T01:26:23;100611.75;;;17.61;50.14
50368;BME280;36281;34.132;-118.018;2023-04-01T01:29:06;100612.13;;;17.53;50.69
50368;BME280;36281;34.132;-118.018;2023-04-01T01:31:49;100613.09;;;17.47;50.74
50368;BME280;36281;34.132;-118.018;2023-04-01T01:34:27;100616.72;;;17.41;50.86
50368;BME280;36281;34.132;-118.018;2023-04-01T01:37:05;100584.56;;;17.12;51.06
50368;BME280;36281;34.132;-118.018;2023-04-01T01:39:36;100611.28;;;17.24;51.43
50368;BME280;36281;34.132;-118.018;2023-04-01T01:42:09;100617.59;;;17.18;51.47
50368;BME280;36281;34.132;-118.018;2023-04-01T01:44:42;100614.25;;;17.11;51.25
50368;BME280;36281;34.132;-118.018;2023-04-01T01:47:14;100618.19;;;17.08;51.61
50368;BME280;36281;34.132;-118.018;2023-04-01T01:49:45;100609.50;;;17.01;51.35
50368;BME280;36281;34.132;-118.018;2023-04-01T01:52:17;100613.22;;;16.88;51.62
50368;BME280;36281;34.132;-118.018;2023-04-01T01:54:48;100608.81;;;16.82;52.03
50368;BME280;36281;34.132;-118.018;2023-04-01T01:57:18;100592.31;;;16.62;52.25
50368;BME280;36281;34.132;-118.018;2023-04-01T01:59:49;100604.50;;;16.69;52.47
50368;BME280;36281;34.132;-118.018;2023-04-01T02:02:22;100609.72;;;16.64;52.69
50368;BME280;36281;34.132;-118.018;2023-04-01T02:04:52;100600.31;;;16.62;53.00
50368;BME280;36281;34.132;-118.018;2023-04-01T02:07:27;100593.00;;;16.57;53.33
50368;BME280;36281;34.132;-118.018;2023-04-01T02:09:57;100592.53;;;16.48;53.57
50368;BME280;36281;34.132;-118.018;2023-04-01T02:12:27;100600.06;;;16.40;53.93
50368;BME280;36281;34.132;-118.018;2023-04-01T02:15:00;100587.88;;;16.32;54.20
50368;BME280;36281;34.132;-118.018;2023-04-01T02:17:34;100574.63;;;16.14;54.29
50368;BME280;36281;34.132;-118.018;2023-04-01T02:20:09;100584.13;;;16.10;55.04
50368;BME280;36281;34.132;-118.018;2023-04-01T02:22:46;100568.44;;;16.01;55.20
50368;BME280;36281;34.132;-118.018;2023-04-01T02:25:19;100575.63;;;15.89;55.73
50368;BME280;36281;34.132;-118.018;2023-04-01T02:27:49;100599.22;;;15.92;55.99
50368;BME280;36281;34.132;-118.018;2023-04-01T02:30:19;100593.38;;;15.84;56.32
50368;BME280;36281;34.132;-118.018;2023-04-01T02:32:48;100598.81;;;15.77;56.88
50368;BME280;36281;34.132;-118.018;2023-04-01T02:35:18;100597.50;;;15.68;57.00
50368;BME280;36281;34.132;-118.018;2023-04-01T02:37:50;100595.13;;;15.60;57.38
50368;BME280;36281;34.132;-118.018;2023-04-01T02:40:20;100597.91;;;15.53;57.44
50368;BME280;36281;34.132;-118.018;2023-04-01T02:42:50;100592.78;;;15.51;57.60
50368;BME280;36281;34.132;-118.018;2023-04-01T02:45:19;100594.72;;;15.44;58.09
50368;BME280;36281;34.132;-118.018;2023-04-01T02:47:48;100595.84;;;15.37;58.49
50368;BME280;36281;34.132;-118.018;2023-04-01T02:50:18;100590.91;;;15.22;58.85
50368;BME280;36281;34.132;-118.018;2023-04-01T02:52:48;100605.56;;;15.31;59.30
50368;BME280;36281;34.132;-118.018;2023-04-01T02:55:17;100610.75;;;15.26;59.84
50368;BME280;36281;34.132;-118.018;2023-04-01T02:57:46;100609.59;;;15.22;60.25
50368;BME280;36281;34.132;-118.018;2023-04-01T03:00:17;100611.06;;;15.18;60.79
50368;BME280;36281;34.132;-118.018;2023-04-01T03:02:46;100611.97;;;15.12;61.45
50368;BME280;36281;34.132;-118.018;2023-04-01T03:05:15;100606.03;;;15.10;61.19
50368;BME280;36281;34.132;-118.018;2023-04-01T03:07:44;100608.13;;;15.08;61.72
50368;BME280;36281;34.132;-118.018;2023-04-01T03:10:15;100604.91;;;14.99;62.40
50368;BME280;36281;34.132;-118.018;2023-04-01T03:12:44;100592.69;;;14.91;62.90
50368;BME280;36281;34.132;-118.018;2023-04-01T03:15:14;100573.13;;;14.79;63.39
50368;BME280;36281;34.132;-118.018;2023-04-01T03:17:43;100578.09;;;14.76;63.76
50368;BME280;36281;34.132;-118.018;2023-04-01T03:20:12;100569.13;;;14.70;64.22
50368;BME280;36281;34.132;-118.018;2023-04-01T03:22:41;100571.25;;;14.61;64.96
50368;BME280;36281;34.132;-118.018;2023-04-01T03:25:10;100568.00;;;14.59;65.20
50368;BME280;36281;34.132;-118.018;2023-04-01T03:27:41;100559.88;;;14.54;65.43
50368;BME280;36281;34.132;-118.018;2023-04-01T03:30:11;100565.44;;;14.53;66.06
50368;BME280;36281;34.132;-118.018;2023-04-01T03:32:40;100519.97;;;14.22;66.17
50368;BME280;36281;34.132;-118.018;2023-04-01T03:35:09;100569.16;;;14.45;66.39
50368;BME280;36281;34.132;-118.018;2023-04-01T03:37:39;100556.06;;;14.43;66.36
50368;BME280;36281;34.132;-118.018;2023-04-01T03:40:09;100555.66;;;14.40;67.10
50368;BME280;36281;34.132;-118.018;2023-04-01T03:42:38;100555.50;;;14.35;67.40
50368;BME280;36281;34.132;-118.018;2023-04-01T03:45:10;100549.38;;;14.34;66.96
50368;BME280;36281;34.132;-118.018;2023-04-01T03:47:40;100556.31;;;14.35;67.30
50368;BME280;36281;34.132;-118.018;2023-04-01T03:50:10;100562.91;;;14.33;67.92
50368;BME280;36281;34.132;-118.018;2023-04-01T03:52:39;100571.13;;;14.31;67.93
50368;BME280;36281;34.132;-118.018;2023-04-01T03:55:08;100564.63;;;14.27;67.71
50368;BME280;36281;34.132;-118.018;2023-04-01T03:57:37;100581.56;;;14.33;67.60
50368;BME280;36281;34.132;-118.018;2023-04-01T04:00:10;100580.59;;;14.27;67.25
50368;BME280;36281;34.132;-118.018;2023-04-01T04:02:39;100592.25;;;14.26;67.85
50368;BME280;36281;34.132;-118.018;2023-04-01T04:05:08;100586.59;;;14.22;68.57
50368;BME280;36281;34.132;-118.018;2023-04-01T04:07:38;100578.84;;;14.14;68.87
50368;BME280;36281;34.132;-118.018;2023-04-01T04:10:08;100588.25;;;14.17;68.47
50368;BME280;36281;34.132;-118.018;2023-04-01T04:12:37;100586.44;;;14.11;69.19
50368;BME280;36281;34.132;-118.018;2023-04-01T04:15:06;100582.59;;;14.07;69.48
50368;BME280;36281;34.132;-118.018;2023-04-01T04:17:37;100585.09;;;14.02;69.78
50368;BME280;36281;34.132;-118.018;2023-04-01T04:20:07;100572.63;;;13.95;70.04
50368;BME280;36281;34.132;-118.018;2023-04-01T04:22:37;100573.75;;;13.88;70.72
50368;BME280;36281;34.132;-118.018;2023-04-01T04:25:07;100555.56;;;13.78;70.76
50368;BME280;36281;34.132;-118.018;2023-04-01T04:27:36;100566.56;;;13.88;70.76
50368;BME280;36281;34.132;-118.018;2023-04-01T04:30:07;100581.91;;;13.86;70.93
50368;BME280;36281;34.132;-118.018;2023-04-01T04:32:38;100592.16;;;13.89;70.88
50368;BME280;36281;34.132;-118.018;2023-04-01T04:35:08;100589.91;;;13.86;70.74
50368;BME280;36281;34.132;-118.018;2023-04-01T04:37:37;100618.19;;;13.87;70.41
50368;BME280;36281;34.132;-118.018;2023-04-01T04:40:07;100614.97;;;13.79;70.39
50368;BME280;36281;34.132;-118.018;2023-04-01T04:42:36;100602.28;;;13.74;70.47
50368;BME280;36281;34.132;-118.018;2023-04-01T04:45:06;100587.78;;;13.70;70.70
50368;BME280;36281;34.132;-118.018;2023-04-01T04:47:37;100582.44;;;13.70;70.91
50368;BME280;36281;34.132;-118.018;2023-04-01T04:50:07;100582.84;;;13.67;71.28
50368;BME280;36281;34.132;-118.018;2023-04-01T04:52:36;100582.09;;;13.60;71.76
50368;BME280;36281;34.132;-118.018;2023-04-01T04:55:06;100589.91;;;13.55;72.71
50368;BME280;36281;34.132;-118.018;2023-04-01T04:57:35;100588.47;;;13.52;72.54
50368;BME280;36281;34.132;-118.018;2023-04-01T05:00:06;100604.44;;;13.52;72.65
50368;BME280;36281;34.132;-118.018;2023-04-01T05:02:35;100625.34;;;13.49;72.73
50368;BME280;36281;34.132;-118.018;2023-04-01T05:05:07;100626.81;;;13.44;72.82
50368;BME280;36281;34.132;-118.018;2023-04-01T05:07:36;100609.41;;;13.42;72.82
50368;BME280;36281;34.132;-118.018;2023-04-01T05:10:06;100618.81;;;13.44;72.68
50368;BME280;36281;34.132;-118.018;2023-04-01T05:12:35;100614.13;;;13.40;72.93
50368;BME280;36281;34.132;-118.018;2023-04-01T05:15:08;100614.19;;;13.33;73.17
50368;BME280;36281;34.132;-118.018;2023-04-01T05:17:37;100619.31;;;13.28;73.61
50368;BME280;36281;34.132;-118.018;2023-04-01T05:20:10;100623.38;;;13.31;73.35
50368;BME280;36281;34.132;-118.018;2023-04-01T05:22:40;100622.97;;;13.27;73.39
50368;BME280;36281;34.132;-118.018;2023-04-01T05:25:09;100615.63;;;13.23;73.46
50368;BME280;36281;34.132;-118.018;2023-04-01T05:27:38;100618.91;;;13.18;73.65
50368;BME280;36281;34.132;-118.018;2023-04-01T05:30:08;100620.72;;;13.17;74.12
50368;BME280;36281;34.132;-118.018;2023-04-01T05:32:37;100623.00;;;13.14;74.06
50368;BME280;36281;34.132;-118.018;2023-04-01T05:35:08;100632.66;;;13.08;74.18
50368;BME280;36281;34.132;-118.018;2023-04-01T05:37:38;100632.25;;;13.05;74.49
50368;BME280;36281;34.132;-118.018;2023-04-01T05:40:08;100628.75;;;13.04;74.60
50368;BME280;36281;34.132;-118.018;2023-04-01T05:42:37;100632.66;;;13.02;74.77
50368;BME280;36281;34.132;-118.018;2023-04-01T05:45:07;100637.19;;;12.94;74.85
50368;BME280;36281;34.132;-118.018;2023-04-01T05:47:37;100636.16;;;12.89;75.61
50368;BME280;36281;34.132;-118.018;2023-04-01T05:50:08;100649.06;;;12.85;75.59
50368;BME280;36281;34.132;-118.018;2023-04-01T05:52:39;100646.59;;;12.84;75.93
50368;BME280;36281;34.132;-118.018;2023-04-01T05:55:09;100638.81;;;12.82;76.03
50368;BME280;36281;34.132;-118.018;2023-04-01T05:57:38;100642.31;;;12.76;76.46
50368;BME280;36281;34.132;-118.018;2023-04-01T06:00:08;100640.69;;;12.75;76.95
50368;BME280;36281;34.132;-118.018;2023-04-01T06:02:37;100636.41;;;12.74;76.77
50368;BME280;36281;34.132;-118.018;2023-04-01T06:05:16;100631.50;;;12.71;77.30
50368;BME280;36281;34.132;-118.018;2023-04-01T06:07:47;100627.59;;;12.67;77.80
50368;BME280;36281;34.132;-118.018;2023-04-01T06:10:17;100635.56;;;12.67;77.74
50368;BME280;36281;34.132;-118.018;2023-04-01T06:12:56;100635.38;;;12.62;78.26
50368;BME280;36281;34.132;-118.018;2023-04-01T06:15:36;100625.56;;;12.56;78.48
50368;BME280;36281;34.132;-118.018;2023-04-01T06:18:41;100629.47;;;12.60;78.74
50368;BME280;36281;34.132;-118.018;2023-04-01T06:21:32;100625.56;;;12.56;78.84
50368;BME280;36281;34.132;-118.018;2023-04-01T06:24:21;100624.56;;;12.57;78.84
50368;BME280;36281;34.132;-118.018;2023-04-01T06:27:04;100620.06;;;12.57;78.94
50368;BME280;36281;34.132;-118.018;2023-04-01T06:30:02;100619.88;;;12.59;78.71
50368;BME280;36281;34.132;-118.018;2023-04-01T06:32:59;100614.94;;;12.56;78.64
50368;BME280;36281;34.132;-118.018;2023-04-01T06:35:52;100621.09;;;12.50;78.63
50368;BME280;36281;34.132;-118.018;2023-04-01T06:39:06;100620.06;;;12.51;79.38
50368;BME280;36281;34.132;-118.018;2023-04-01T06:42:02;100611.91;;;12.46;79.44
50368;BME280;36281;34.132;-118.018;2023-04-01T06:44:41;100614.56;;;12.46;79.78
50368;BME280;36281;34.132;-118.018;2023-04-01T06:47:23;100614.13;;;12.42;80.26
50368;BME280;36281;34.132;-118.018;2023-04-01T06:50:00;100618.22;;;12.38;80.24
50368;BME280;36281;34.132;-118.018;2023-04-01T06:52:39;100619.69;;;12.34;80.42
50368;BME280;36281;34.132;-118.018;2023-04-01T06:55:26;100624.38;;;12.38;80.53
50368;BME280;36281;34.132;-118.018;2023-04-01T06:57:57;100620.88;;;12.38;80.48
50368;BME280;36281;34.132;-118.018;2023-04-01T07:00:30;100613.56;;;12.33;80.74
50368;BME280;36281;34.132;-118.018;2023-04-01T07:03:06;100613.72;;;12.32;80.52
50368;BME280;36281;34.132;-118.018;2023-04-01T07:05:39;100617.63;;;12.29;80.89
50368;BME280;36281;34.132;-118.018;2023-04-01T07:08:11;100615.78;;;12.23;81.02
50368;BME280;36281;34.132;-118.018;2023-04-01T07:10:47;100618.25;;;12.25;81.13
50368;BME280;36281;34.132;-118.018;2023-04-01T07:13:20;100612.09;;;12.18;81.25
50368;BME280;36281;34.132;-118.018;2023-04-01T07:16:03;100584.72;;;11.97;81.47
50368;BME280;36281;34.132;-118.018;2023-04-01T07:18:38;100615.38;;;12.06;81.55
50368;BME280;36281;34.132;-118.018;2023-04-01T07:21:19;100614.53;;;12.06;81.75
50368;BME280;36281;34.132;-118.018;2023-04-01T07:23:51;100620.88;;;12.05;81.63
50368;BME280;36281;34.132;-118.018;2023-04-01T07:26:23;100617.00;;;12.01;81.48
50368;BME280;36281;34.132;-118.018;2023-04-01T07:28:54;100608.81;;;11.89;81.44
50368;BME280;36281;34.132;-118.018;2023-04-01T07:31:37;100609.41;;;11.84;81.44
50368;BME280;36281;34.132;-118.018;2023-04-01T07:34:11;100609.78;;;11.81;81.49
50368;BME280;36281;34.132;-118.018;2023-04-01T07:36:49;100611.19;;;11.77;81.63
50368;BME280;36281;34.132;-118.018;2023-04-01T07:39:32;100608.34;;;11.72;81.49
50368;BME280;36281;34.132;-118.018;2023-04-01T07:42:16;100613.63;;;11.65;81.43
50368;BME280;36281;34.132;-118.018;2023-04-01T07:44:57;100607.69;;;11.57;81.97
50368;BME280;36281;34.132;-118.018;2023-04-01T07:47:39;100599.88;;;11.42;81.96
50368;BME280;36281;34.132;-118.018;2023-04-01T07:50:16;100595.00;;;11.46;82.13
50368;BME280;36281;34.132;-118.018;2023-04-01T07:52:52;100606.00;;;11.43;82.26
50368;BME280;36281;34.132;-118.018;2023-04-01T07:55:27;100605.38;;;11.34;82.96
50368;BME280;36281;34.132;-118.018;2023-04-01T07:58:06;100609.03;;;11.33;82.58
50368;BME280;36281;34.132;-118.018;2023-04-01T08:00:43;100605.75;;;11.24;83.12
50368;BME280;36281;34.132;-118.018;2023-04-01T08:03:33;100578.94;;;11.06;82.90
50368;BME280;36281;34.132;-118.018;2023-04-01T08:06:10;100597.53;;;11.12;83.28
50368;BME280;36281;34.132;-118.018;2023-04-01T08:08:47;100601.78;;;11.07;83.46
50368;BME280;36281;34.132;-118.018;2023-04-01T08:11:29;100597.13;;;11.09;83.77
50368;BME280;36281;34.132;-118.018;2023-04-01T08:14:12;100599.09;;;11.00;83.89
50368;BME280;36281;34.132;-118.018;2023-04-01T08:16:52;100592.53;;;10.90;84.19
50368;BME280;36281;34.132;-118.018;2023-04-01T08:19:34;100591.09;;;10.87;84.39
50368;BME280;36281;34.132;-118.018;2023-04-01T08:22:13;100591.28;;;10.85;83.92
50368;BME280;36281;34.132;-118.018;2023-04-01T08:24:45;100587.81;;;10.85;83.95
50368;BME280;36281;34.132;-118.018;2023-04-01T08:27:21;100583.47;;;10.77;84.19
50368;BME280;36281;34.132;-118.018;2023-04-01T08:29:57;100585.75;;;10.80;84.17
50368;BME280;36281;34.132;-118.018;2023-04-01T08:32:32;100577.94;;;10.72;84.08
50368;BME280;36281;34.132;-118.018;2023-04-01T08:35:08;100577.72;;;10.67;84.80
50368;BME280;36281;34.132;-118.018;2023-04-01T08:37:42;100574.03;;;10.61;85.09
50368;BME280;36281;34.132;-118.018;2023-04-01T08:40:35;100565.22;;;10.54;85.06
50368;BME280;36281;34.132;-118.018;2023-04-01T08:43:09;100565.00;;;10.49;85.11
50368;BME280;36281;34.132;-118.018;2023-04-01T08:46:01;100566.63;;;10.50;85.09
50368;BME280;36281;34.132;-118.018;2023-04-01T08:48:55;100564.38;;;10.54;84.91
50368;BME280;36281;34.132;-118.018;2023-04-01T08:54:38;100554.75;;;10.40;85.15
50368;BME280;36281;34.132;-118.018;2023-04-01T08:57:21;100540.41;;;10.34;85.07
50368;BME280;36281;34.132;-118.018;2023-04-01T09:00:04;100551.44;;;10.38;84.66
50368;BME280;36281;34.132;-118.018;2023-04-01T09:03:02;100545.72;;;10.34;84.38
50368;BME280;36281;34.132;-118.018;2023-04-01T09:08:39;100530.00;;;10.26;84.45
50368;BME280;36281;34.132;-118.018;2023-04-01T09:11:20;100539.56;;;10.27;84.06
50368;BME280;36281;34.132;-118.018;2023-04-01T09:14:17;100532.53;;;10.19;83.87
50368;BME280;36281;34.132;-118.018;2023-04-01T09:20:08;100521.81;;;9.99;84.15
50368;BME280;36281;34.132;-118.018;2023-04-01T09:22:53;100520.94;;;9.92;83.81
50368;BME280;36281;34.132;-118.018;2023-04-01T09:25:36;100533.81;;;9.95;83.90
50368;BME280;36281;34.132;-118.018;2023-04-01T09:28:13;100529.47;;;9.88;84.11
50368;BME280;36281;34.132;-118.018;2023-04-01T09:31:06;100521.84;;;9.78;84.42
50368;BME280;36281;34.132;-118.018;2023-04-01T09:36:48;100530.84;;;9.83;84.27
50368;BME280;36281;34.132;-118.018;2023-04-01T09:39:36;100531.59;;;9.77;83.91
50368;BME280;36281;34.132;-118.018;2023-04-01T09:42:25;100527.28;;;9.70;84.27
50368;BME280;36281;34.132;-118.018;2023-04-01T09:44:59;100529.56;;;9.79;83.98
50368;BME280;36281;34.132;-118.018;2023-04-01T09:47:42;100523.06;;;9.75;84.06
50368;BME280;36281;34.132;-118.018;2023-04-01T09:50:33;100527.69;;;9.73;83.84
50368;BME280;36281;34.132;-118.018;2023-04-01T09:53:17;100535.03;;;9.71;83.52
50368;BME280;36281;34.132;-118.018;2023-04-01T09:56:21;100531.47;;;9.64;83.61
50368;BME280;36281;34.132;-118.018;2023-04-01T10:08:43;100530.34;;;9.52;84.87
50368;BME280;36281;34.132;-118.018;2023-04-01T10:11:42;100539.66;;;9.48;84.67
50368;BME280;36281;34.132;-118.018;2023-04-01T10:20:54;100532.34;;;9.28;85.30
50368;BME280;36281;34.132;-118.018;2023-04-01T10:23:53;100524.25;;;9.30;85.50
50368;BME280;36281;34.132;-118.018;2023-04-01T10:29:51;100519.41;;;9.19;85.88
50368;BME280;36281;34.132;-118.018;2023-04-01T10:32:51;100520.88;;;9.21;85.83
50368;BME280;36281;34.132;-118.018;2023-04-01T10:39:10;100522.19;;;9.11;86.14
50368;BME280;36281;34.132;-118.018;2023-04-01T10:42:11;100516.09;;;9.10;85.85
50368;BME280;36281;34.132;-118.018;2023-04-01T10:48:13;100523.31;;;9.01;85.85
50368;BME280;36281;34.132;-118.018;2023-04-01T10:51:01;100502.19;;;8.87;85.73
50368;BME280;36281;34.132;-118.018;2023-04-01T10:53:49;100453.13;;;8.63;85.48
50368;BME280;36281;34.132;-118.018;2023-04-01T10:56:53;100522.84;;;8.98;85.43
50368;BME280;36281;34.132;-118.018;2023-04-01T11:00:03;100516.94;;;8.96;85.16
50368;BME280;36281;34.132;-118.018;2023-04-01T11:06:16;100505.03;;;8.85;85.29
50368;BME280;36281;34.132;-118.018;2023-04-01T11:09:15;100504.72;;;8.80;85.51
50368;BME280;36281;34.132;-118.018;2023-04-01T11:12:24;100505.94;;;8.77;85.83
50368;BME280;36281;34.132;-118.018;2023-04-01T11:15:27;100509.94;;;8.73;86.21
50368;BME280;36281;34.132;-118.018;2023-04-01T11:21:25;100509.94;;;8.73;86.14
50368;BME280;36281;34.132;-118.018;2023-04-01T11:24:13;100505.03;;;8.70;86.19
50368;BME280;36281;34.132;-118.018;2023-04-01T11:26:53;100505.88;;;8.71;86.23
50368;BME280;36281;34.132;-118.018;2023-04-01T11:29:41;100480.91;;;8.59;86.24
50368;BME280;36281;34.132;-118.018;2023-04-01T11:32:35;100494.56;;;8.62;86.17
50368;BME280;36281;34.132;-118.018;2023-04-01T11:38:21;100484.75;;;8.56;86.25
50368;BME280;36281;34.132;-118.018;2023-04-01T11:40:59;100490.19;;;8.54;85.92
50368;BME280;36281;34.132;-118.018;2023-04-01T11:43:36;100495.47;;;8.54;85.86
50368;BME280;36281;34.132;-118.018;2023-04-01T11:46:11;100491.59;;;8.50;85.86
50368;BME280;36281;34.132;-118.018;2023-04-01T11:48:50;100493.09;;;8.45;85.97
50368;BME280;36281;34.132;-118.018;2023-04-01T11:51:34;100491.72;;;8.34;85.94
50368;BME280;36281;34.132;-118.018;2023-04-01T11:54:16;100486.00;;;8.31;86.60
50368;BME280;36281;34.132;-118.018;2023-04-01T11:57:00;100490.63;;;8.28;86.46
50368;BME280;36281;34.132;-118.018;2023-04-01T11:59:47;100491.81;;;8.26;86.52
50368;BME280;36281;34.132;-118.018;2023-04-01T12:02:28;100492.97;;;8.23;86.19
50368;BME280;36281;34.132;-118.018;2023-04-01T12:05:11;100493.34;;;8.20;86.11
50368;BME280;36281;34.132;-118.018;2023-04-01T12:08:04;100502.25;;;8.19;85.76
50368;BME280;36281;34.132;-118.018;2023-04-01T12:10:42;100498.53;;;8.14;85.63
50368;BME280;36281;34.132;-118.018;2023-04-01T12:13:24;100507.91;;;8.16;85.32
50368;BME280;36281;34.132;-118.018;2023-04-01T12:16:07;100503.81;;;8.14;85.15
50368;BME280;36281;34.132;-118.018;2023-04-01T12:18:43;100491.16;;;8.09;85.19
50368;BME280;36281;34.132;-118.018;2023-04-01T12:21:25;100512.72;;;8.13;85.13
50368;BME280;36281;34.132;-118.018;2023-04-01T12:27:04;100513.97;;;8.02;84.92
50368;BME280;36281;34.132;-118.018;2023-04-01T12:32:41;100511.94;;;7.89;85.33
50368;BME280;36281;34.132;-118.018;2023-04-01T12:35:20;100519.22;;;7.87;86.05
50368;BME280;36281;34.132;-118.018;2023-04-01T12:37:58;100519.75;;;7.83;85.77
50368;BME280;36281;34.132;-118.018;2023-04-01T12:41:05;100511.84;;;7.83;86.20
50368;BME280;36281;34.132;-118.018;2023-04-01T12:43:56;100512.66;;;7.83;85.89
50368;BME280;36281;34.132;-118.018;2023-04-01T12:46:32;100514.38;;;7.76;86.05
50368;BME280;36281;34.132;-118.018;2023-04-01T12:49:27;100500.44;;;7.67;86.45
50368;BME280;36281;34.132;-118.018;2023-04-01T12:52:10;100507.09;;;7.78;86.06
50368;BME280;36281;34.132;-118.018;2023-04-01T12:58:06;100498.19;;;7.79;86.37
50368;BME280;36281;34.132;-118.018;2023-04-01T13:00:48;100499.00;;;7.80;86.18
50368;BME280;36281;34.132;-118.018;2023-04-01T13:03:52;100504.28;;;7.80;85.99
50368;BME280;36281;34.132;-118.018;2023-04-01T13:06:43;100503.53;;;7.71;86.26
50368;BME280;36281;34.132;-118.018;2023-04-01T13:09:26;100505.19;;;7.72;86.27
50368;BME280;36281;34.132;-118.018;2023-04-01T13:12:17;100522.97;;;7.70;85.98
50368;BME280;36281;34.132;-118.018;2023-04-01T13:17:50;100516.13;;;7.61;86.24
50368;BME280;36281;34.132;-118.018;2023-04-01T13:20:28;100522.88;;;7.63;85.75
50368;BME280;36281;34.132;-118.018;2023-04-01T13:23:09;100527.81;;;7.66;86.04
50368;BME280;36281;34.132;-118.018;2023-04-01T13:25:50;100519.31;;;7.56;86.09
50368;BME280;36281;34.132;-118.018;2023-04-01T13:28:40;100524.28;;;7.51;86.14
50368;BME280;36281;34.132;-118.018;2023-04-01T13:34:21;100515.53;;;7.50;86.43
50368;BME280;36281;34.132;-118.018;2023-04-01T13:36:59;100523.00;;;7.47;86.10
50368;BME280;36281;34.132;-118.018;2023-04-01T13:39:46;100525.78;;;7.45;86.09
50368;BME280;36281;34.132;-118.018;2023-04-01T13:42:25;100526.63;;;7.46;86.59
50368;BME280;36281;34.132;-118.018;2023-04-01T13:45:01;100526.63;;;7.46;86.82
50368;BME280;36281;34.132;-118.018;2023-04-01T13:51:01;100524.38;;;7.35;86.96
50368;BME280;36281;34.132;-118.018;2023-04-01T13:54:08;100528.00;;;7.34;86.65
50368;BME280;36281;34.132;-118.018;2023-04-01T13:56:46;100539.56;;;7.33;87.15
50368;BME280;36281;34.132;-118.018;2023-04-01T13:59:54;100533.28;;;7.34;87.30
50368;BME280;36281;34.132;-118.018;2023-04-01T14:05:52;100536.03;;;7.40;86.69
50368;BME280;36281;34.132;-118.018;2023-04-01T14:08:36;100536.69;;;7.42;86.69
50368;BME280;36281;34.132;-118.018;2023-04-01T14:11:17;100537.84;;;7.40;87.63
50368;BME280;36281;34.132;-118.018;2023-04-01T14:13:56;100536.03;;;7.40;87.18
50368;BME280;36281;34.132;-118.018;2023-04-01T14:16:51;100539.13;;;7.44;87.98
50368;BME280;36281;34.132;-118.018;2023-04-01T14:19:31;100549.50;;;7.45;88.09
50368;BME280;36281;34.132;-118.018;2023-04-01T14:22:13;100546.72;;;7.47;88.45
50368;BME280;36281;34.132;-118.018;2023-04-01T14:25:23;100544.06;;;7.47;88.65
50368;BME280;36281;34.132;-118.018;2023-04-01T14:28:01;100552.56;;;7.57;88.43
50368;BME280;36281;34.132;-118.018;2023-04-01T14:30:47;100556.50;;;7.61;88.40